createdAt,value
2019-02-23T00:00:02.923Z,1022.33
2019-02-23T00:05:07.712Z,1022.3
2019-02-23T00:10:08.161Z,1022.25
2019-02-23T00:15:05.099Z,1022.16
2019-02-23T00:20:05.405Z,1022.17
2019-02-23T00:25:08.522Z,1022.21
2019-02-23T00:30:03.421Z,1022.26
2019-02-23T00:35:08.922Z,1022.26
2019-02-23T00:40:08.070Z,1022.32
2019-02-23T00:45:03.192Z,1022.28
2019-02-23T00:50:08.923Z,1022.27
2019-02-23T00:55:08.135Z,1022.28
2019-02-23T01:00:03.267Z,1022.28
2019-02-23T01:05:07.733Z,1022.24
2019-02-23T01:10:07.168Z,1022.14
2019-02-23T01:15:04.766Z,1022.17
2019-02-23T01:20:05.693Z,1022.2
2019-02-23T01:25:06.006Z,1022.04
2019-02-23T01:30:03.120Z,1022.01
2019-02-23T01:35:05.094Z,1021.97
2019-02-23T01:40:05.860Z,1022.01
2019-02-23T01:45:04.869Z,1021.95
2019-02-23T01:50:07.267Z,1021.94
2019-02-23T01:55:07.118Z,1021.96
2019-02-23T02:00:05.309Z,1021.9
2019-02-23T02:05:06.417Z,1021.91
2019-02-23T02:10:03.662Z,1021.93
2019-02-23T02:15:07.064Z,1021.89
2019-02-23T02:20:14.533Z,1021.89
2019-02-23T02:25:07.742Z,1021.96
2019-02-23T02:30:11.527Z,1021.94
2019-02-23T02:35:07.834Z,1021.93
2019-02-23T02:40:06.846Z,1021.95
2019-02-23T02:45:04.347Z,1021.91
2019-02-23T02:50:06.081Z,1022.01
2019-02-23T02:55:07.050Z,1021.97
2019-02-23T03:00:03.148Z,1021.95
2019-02-23T03:05:06.457Z,1021.91
2019-02-23T03:10:06.799Z,1021.79
2019-02-23T03:15:04.377Z,1021.72
2019-02-23T03:20:11.749Z,1021.68
2019-02-23T03:25:09.043Z,1021.64
2019-02-23T03:30:11.485Z,1021.63
2019-02-23T03:35:11.587Z,1021.71
2019-02-23T03:40:09.328Z,1021.74
2019-02-23T03:45:04.922Z,1021.74
2019-02-23T03:50:11.560Z,1021.84
2019-02-23T03:55:12.670Z,1021.84
2019-02-23T04:00:08.116Z,1021.85
2019-02-23T04:05:09.164Z,1021.78
2019-02-23T04:10:05.637Z,1021.8
2019-02-23T04:15:07.308Z,1021.94
2019-02-23T04:20:07.860Z,1021.93
2019-02-23T04:25:08.305Z,1022
2019-02-23T04:30:02.830Z,1021.98
2019-02-23T04:35:08.280Z,1022.05
2019-02-23T04:40:07.465Z,1022.09
2019-02-23T04:45:02.939Z,1022
2019-02-23T04:50:08.064Z,1022.03
2019-02-23T04:55:07.526Z,1022.04
2019-02-23T05:00:03.014Z,1022.16
2019-02-23T05:05:07.073Z,1022.26
2019-02-23T05:10:03.047Z,1022.36
2019-02-23T05:15:08.428Z,1022.41
2019-02-23T05:20:07.594Z,1022.39
2019-02-23T05:25:05.621Z,1022.39
2019-02-23T05:30:03.104Z,1022.34
2019-02-23T05:35:05.279Z,1022.41
2019-02-23T05:40:05.758Z,1022.46
2019-02-23T05:45:03.178Z,1022.38
2019-02-23T05:50:05.965Z,1022.38
2019-02-23T05:55:06.142Z,1022.55
2019-02-23T06:00:02.702Z,1022.58
2019-02-23T06:05:06.558Z,1022.63
2019-02-23T06:10:07.836Z,1022.54
2019-02-23T06:15:03.871Z,1022.55
2019-02-23T06:20:06.977Z,1022.51
2019-02-23T06:25:07.815Z,1022.64
2019-02-23T06:30:03.866Z,1022.67
2019-02-23T06:35:05.973Z,1022.71
2019-02-23T06:40:07.774Z,1022.77
2019-02-23T06:45:03.747Z,1022.74
2019-02-23T06:50:05.846Z,1022.78
2019-02-23T06:55:07.867Z,1022.82
2019-02-23T07:00:03.827Z,1022.9
2019-02-23T07:05:07.204Z,1022.9
2019-02-23T07:10:09.056Z,1022.95
2019-02-23T07:15:05.639Z,1022.98
2019-02-23T07:20:09.416Z,1022.92
2019-02-23T07:25:08.105Z,1022.86
2019-02-23T07:30:03.721Z,1022.86
2019-02-23T07:35:08.128Z,1022.91
2019-02-23T07:40:07.445Z,1022.93
2019-02-23T07:45:04.099Z,1022.94
2019-02-23T07:50:07.283Z,1022.98
2019-02-23T07:55:06.624Z,1022.96
2019-02-23T08:00:04.991Z,1022.85
2019-02-23T08:05:05.980Z,1022.82
2019-02-23T08:10:10.297Z,1022.84
2019-02-23T08:15:04.387Z,1022.82
2019-02-23T08:20:06.949Z,1022.77
2019-02-23T08:25:10.374Z,1022.67
2019-02-23T08:30:04.032Z,1022.6
2019-02-23T08:35:09.432Z,1022.6
2019-02-23T08:40:08.365Z,1022.51
2019-02-23T08:45:04.042Z,1022.39
2019-02-23T08:50:07.317Z,1022.37
2019-02-23T08:55:05.972Z,1022.41
2019-02-23T09:00:04.481Z,1022.38
2019-02-23T09:05:06.168Z,1022.42
2019-02-23T09:10:08.224Z,1022.38
2019-02-23T09:15:03.682Z,1022.42
2019-02-23T09:20:06.754Z,1022.44
2019-02-23T09:25:07.813Z,1022.43
2019-02-23T09:30:03.278Z,1022.45
2019-02-23T09:35:06.955Z,1022.52
2019-02-23T09:40:09.313Z,1022.55
2019-02-23T09:45:02.847Z,1022.54
2019-02-23T09:50:09.112Z,1022.55
2019-02-23T09:55:09.036Z,1022.42
2019-02-23T10:00:02.599Z,1022.46
2019-02-23T10:05:09.877Z,1022.61
2019-02-23T10:10:07.623Z,1022.64
2019-02-23T10:15:04.724Z,1022.65
2019-02-23T10:20:07.282Z,1022.78
2019-02-23T10:25:07.927Z,1022.77
2019-02-23T10:30:03.378Z,1022.69
2019-02-23T10:35:07.709Z,1022.68
2019-02-23T10:40:06.330Z,1022.67
2019-02-23T10:45:03.158Z,1022.66
2019-02-23T10:50:05.649Z,1022.64
2019-02-23T10:55:07.356Z,1022.62
2019-02-23T11:00:02.916Z,1022.58
2019-02-23T11:05:07.318Z,1022.48
2019-02-23T11:10:09.130Z,1022.44
2019-02-23T11:15:02.918Z,1022.4
2019-02-23T11:20:09.551Z,1022.4
2019-02-23T11:25:10.058Z,1022.38
2019-02-23T11:30:02.535Z,1022.3
2019-02-23T11:35:08.459Z,1022.25
2019-02-23T11:40:07.720Z,1022.13
2019-02-23T11:45:03.156Z,1022.06
2019-02-23T11:50:05.704Z,1021.93
2019-02-23T11:55:04.402Z,1021.92
2019-02-23T12:00:02.993Z,1021.85
2019-02-23T12:05:03.956Z,1021.81
2019-02-23T12:10:05.495Z,1021.85
2019-02-23T12:15:02.952Z,1021.79
2019-02-23T12:20:04.607Z,1021.67
2019-02-23T12:25:04.729Z,1021.59
2019-02-23T12:30:03.184Z,1021.48
2019-02-23T12:35:04.034Z,1021.31
2019-02-23T12:40:08.935Z,1021.27
2019-02-23T12:45:04.466Z,1021.18
2019-02-23T12:50:06.910Z,1021.1
2019-02-23T12:55:09.624Z,1021.05
2019-02-23T13:00:05.207Z,1021.06
2019-02-23T13:05:09.440Z,1020.99
2019-02-23T13:10:07.700Z,1021.06
2019-02-23T13:15:04.200Z,1021.09
2019-02-23T13:20:07.236Z,1020.97
2019-02-23T13:25:07.065Z,1021
2019-02-23T13:30:03.708Z,1020.95
2019-02-23T13:35:06.982Z,1020.97
2019-02-23T13:40:07.698Z,1020.98
2019-02-23T13:45:04.372Z,1020.94
2019-02-23T13:50:06.025Z,1020.97
2019-02-23T13:55:06.736Z,1020.97
2019-02-23T14:00:04.226Z,1020.97
2019-02-23T14:05:06.692Z,1021.04
2019-02-23T14:10:07.528Z,1020.94
2019-02-23T14:15:04.119Z,1020.92
2019-02-23T14:20:07.041Z,1020.92
2019-02-23T14:25:10.100Z,1020.97
2019-02-23T14:30:05.449Z,1020.95
2019-02-23T14:35:09.392Z,1020.83
2019-02-23T14:40:07.318Z,1020.81
2019-02-23T14:45:03.994Z,1020.86
2019-02-23T14:50:09.091Z,1020.83
2019-02-23T14:55:07.162Z,1020.76
2019-02-23T15:00:03.681Z,1020.79
2019-02-23T15:05:07.837Z,1020.73
2019-02-23T15:10:09.072Z,1020.7
2019-02-23T15:15:03.694Z,1020.72
2019-02-23T15:20:06.531Z,1020.72
2019-02-23T15:25:15.492Z,1020.82
2019-02-23T15:30:04.015Z,1020.93
2019-02-23T15:35:06.435Z,1020.81
2019-02-23T15:40:09.463Z,1020.87
2019-02-23T15:45:06.278Z,1020.81
2019-02-23T15:50:16.326Z,1020.82
2019-02-23T15:55:07.328Z,1020.89
2019-02-23T16:00:02.844Z,1020.92
2019-02-23T16:05:08.154Z,1020.93
2019-02-23T16:10:06.724Z,1021
2019-02-23T16:15:04.257Z,1021.02
2019-02-23T16:20:06.171Z,1020.98
2019-02-23T16:25:07.793Z,1021
2019-02-23T16:30:03.240Z,1021.06
2019-02-23T16:35:06.184Z,1021.08
2019-02-23T16:40:06.771Z,1021.1
2019-02-23T16:45:03.311Z,1021.23
2019-02-23T16:50:06.018Z,1021.3
2019-02-23T16:55:06.691Z,1021.28
2019-02-23T17:00:03.197Z,1021.26
2019-02-23T17:05:06.760Z,1021.26
2019-02-23T17:10:07.917Z,1021.28
2019-02-23T17:15:03.376Z,1021.31
2019-02-23T17:20:06.885Z,1021.38
2019-02-23T17:25:07.741Z,1021.37
2019-02-23T17:30:03.282Z,1021.36
2019-02-23T17:35:06.565Z,1021.46
2019-02-23T17:40:06.843Z,1021.44
2019-02-23T17:45:03.396Z,1021.42
2019-02-23T17:50:05.590Z,1021.44
2019-02-23T17:55:04.309Z,1021.34
2019-02-23T18:00:02.873Z,1021.33
2019-02-23T18:05:04.691Z,1021.3
2019-02-23T18:10:07.206Z,1021.25
2019-02-23T18:15:03.987Z,1021.21
2019-02-23T18:20:07.152Z,1021.22
2019-02-23T18:25:07.809Z,1021.11
2019-02-23T18:30:14.375Z,1021.13
2019-02-23T18:35:07.452Z,1021.2
2019-02-23T18:40:07.068Z,1021.23
2019-02-23T18:45:03.663Z,1021.21
2019-02-23T18:50:06.213Z,1021.26
2019-02-23T18:55:06.824Z,1021.26
2019-02-23T19:00:04.290Z,1021.34
2019-02-23T19:05:06.078Z,1021.38
2019-02-23T19:10:07.037Z,1021.47
2019-02-23T19:15:03.673Z,1021.44
2019-02-23T19:20:06.194Z,1021.44
2019-02-23T19:25:07.395Z,1021.4
2019-02-23T19:30:03.839Z,1021.34
2019-02-23T19:35:06.526Z,1021.37
2019-02-23T19:40:07.030Z,1021.47
2019-02-23T19:45:03.753Z,1021.42
2019-02-23T19:50:06.417Z,1021.43
2019-02-23T19:55:07.038Z,1021.53
2019-02-23T20:00:03.699Z,1021.53
2019-02-23T20:05:06.803Z,1021.5
2019-02-23T20:10:06.785Z,1021.52
2019-02-23T20:15:04.406Z,1021.52
2019-02-23T20:20:06.146Z,1021.57
2019-02-23T20:25:07.045Z,1021.52
2019-02-23T20:30:03.795Z,1021.62
2019-02-23T20:35:06.602Z,1021.56
2019-02-23T20:40:07.139Z,1021.5
2019-02-23T20:45:03.793Z,1021.41
2019-02-23T20:50:06.480Z,1021.45
2019-02-23T20:55:07.064Z,1021.53
2019-02-23T21:00:03.823Z,1021.48
2019-02-23T21:05:06.405Z,1021.52
2019-02-23T21:10:06.934Z,1021.45
2019-02-23T21:15:03.733Z,1021.43
2019-02-23T21:20:07.046Z,1021.43
2019-02-23T21:25:07.289Z,1021.44
2019-02-23T21:30:03.304Z,1021.41
2019-02-23T21:35:06.652Z,1021.34
2019-02-23T21:40:07.245Z,1021.37
2019-02-23T21:45:02.789Z,1021.34
2019-02-23T21:50:06.327Z,1021.36
2019-02-23T21:55:06.997Z,1021.37
2019-02-23T22:00:02.713Z,1021.35
2019-02-23T22:05:15.691Z,1021.32
2019-02-23T22:10:07.179Z,1021.34
2019-02-23T22:15:02.751Z,1021.3
2019-02-23T22:20:06.449Z,1021.3
2019-02-23T22:25:07.399Z,1021.31
2019-02-23T22:30:02.891Z,1021.31
2019-02-23T22:35:06.540Z,1021.38
2019-02-23T22:40:07.570Z,1021.37
2019-02-23T22:45:03.050Z,1021.43
2019-02-23T22:50:06.423Z,1021.43
2019-02-23T22:55:08.143Z,1021.44
2019-02-23T23:00:02.726Z,1021.47
2019-02-23T23:05:07.183Z,1021.47
2019-02-23T23:10:08.438Z,1021.45
2019-02-23T23:15:02.942Z,1021.47
2019-02-23T23:20:07.372Z,1021.46
2019-02-23T23:25:08.133Z,1021.5
2019-02-23T23:30:02.670Z,1021.5
2019-02-23T23:35:05.890Z,1021.46
2019-02-23T23:40:07.843Z,1021.44
2019-02-23T23:45:03.287Z,1021.33
2019-02-23T23:50:05.085Z,1021.32
2019-02-23T23:55:05.080Z,1021.32
